createdAt,value
2022-08-02T00:00:55.619Z,14.22
2022-08-02T00:01:56.626Z,14.23
2022-08-02T00:03:01.030Z,14.25
2022-08-02T00:04:05.342Z,14.25
2022-08-02T00:05:09.697Z,14.24
2022-08-02T00:06:14.051Z,14.23
2022-08-02T00:07:18.489Z,14.23
2022-08-02T00:08:22.796Z,14.21
2022-08-02T00:09:27.136Z,14.21
2022-08-02T00:10:31.497Z,14.19
2022-08-02T00:11:35.857Z,14.18
2022-08-02T00:12:40.195Z,14.18
2022-08-02T00:13:44.569Z,14.17
2022-08-02T00:14:48.926Z,14.15
2022-08-02T00:15:53.312Z,14.11
2022-08-02T00:16:57.642Z,14.08
2022-08-02T00:18:02.010Z,14.06
2022-08-02T00:19:06.437Z,14.02
2022-08-02T00:20:10.722Z,14.00
2022-08-02T00:21:15.085Z,13.97
2022-08-02T00:22:19.421Z,13.95
2022-08-02T00:23:23.790Z,13.95
2022-08-02T00:24:30.600Z,13.94
2022-08-02T00:25:32.519Z,13.90
2022-08-02T00:26:36.885Z,13.86
2022-08-02T00:27:41.267Z,13.83
2022-08-02T00:28:45.657Z,13.80
2022-08-02T00:29:53.070Z,13.79
2022-08-02T00:30:54.348Z,13.80
2022-08-02T00:31:58.786Z,13.80
2022-08-02T00:33:03.109Z,13.81
2022-08-02T00:34:28.724Z,13.82
2022-08-02T00:35:11.827Z,13.82
2022-08-02T00:36:16.201Z,13.83
2022-08-02T00:37:20.563Z,13.86
2022-08-02T00:38:24.899Z,13.87
2022-08-02T00:39:33.614Z,13.88
2022-08-02T00:40:33.599Z,13.87
2022-08-02T00:41:37.919Z,13.84
2022-08-02T00:42:42.255Z,13.80
2022-08-02T00:43:46.584Z,13.80
2022-08-02T00:44:50.923Z,13.80
2022-08-02T00:46:02.742Z,13.78
2022-08-02T00:46:59.613Z,13.78
2022-08-02T00:48:03.989Z,13.77
2022-08-02T00:49:08.389Z,13.75
2022-08-02T00:50:12.675Z,13.75
2022-08-02T00:51:17.043Z,13.75
2022-08-02T00:52:21.392Z,13.75
2022-08-02T00:53:25.730Z,13.75
2022-08-02T00:54:30.121Z,13.75
2022-08-02T00:55:34.359Z,13.74
2022-08-02T00:56:38.843Z,13.74
2022-08-02T00:57:43.111Z,13.72
2022-08-02T00:58:47.584Z,13.71
2022-08-02T00:59:51.861Z,13.68
2022-08-02T01:00:56.203Z,13.67
2022-08-02T01:02:00.682Z,13.66
2022-08-02T01:03:04.949Z,13.63
2022-08-02T01:04:09.311Z,13.62
2022-08-02T01:05:13.643Z,13.62
2022-08-02T01:06:17.976Z,13.63
2022-08-02T01:07:22.317Z,13.59
2022-08-02T01:08:29.633Z,13.56
2022-08-02T01:09:31.059Z,13.53
2022-08-02T01:10:35.368Z,13.53
2022-08-02T01:11:39.737Z,13.54
2022-08-02T01:12:44.053Z,13.54
2022-08-02T01:13:48.406Z,13.55
2022-08-02T01:14:52.775Z,13.54
2022-08-02T01:15:57.160Z,13.53
2022-08-02T01:17:01.453Z,13.49
2022-08-02T01:18:05.778Z,13.45
2022-08-02T01:19:15.906Z,13.40
2022-08-02T01:20:14.514Z,13.37
2022-08-02T01:21:18.973Z,13.35
2022-08-02T01:22:39.431Z,13.35
2022-08-02T01:23:27.617Z,13.37
2022-08-02T01:24:31.974Z,13.38
2022-08-02T01:25:36.329Z,13.42
2022-08-02T01:26:40.794Z,13.45
2022-08-02T01:27:45.180Z,13.45
2022-08-02T01:28:49.489Z,13.45
2022-08-02T01:29:53.865Z,13.43
2022-08-02T01:30:58.182Z,13.44
2022-08-02T01:32:02.507Z,13.45
2022-08-02T01:33:06.849Z,13.47
2022-08-02T01:34:11.185Z,13.48
2022-08-02T01:35:15.547Z,13.51
2022-08-02T01:36:19.896Z,13.51
2022-08-02T01:37:24.208Z,13.51
2022-08-02T01:38:28.547Z,13.50
2022-08-02T01:39:32.842Z,13.50
2022-08-02T01:40:37.197Z,13.49
2022-08-02T01:41:41.505Z,13.48
2022-08-02T01:42:45.848Z,13.48
2022-08-02T01:43:50.166Z,13.49
2022-08-02T01:44:54.509Z,13.45
2022-08-02T01:45:58.825Z,13.40
2022-08-02T01:47:03.162Z,13.37
2022-08-02T01:48:07.511Z,13.35
2022-08-02T01:49:11.946Z,13.35
2022-08-02T01:50:16.240Z,13.36
2022-08-02T01:51:20.615Z,13.40
2022-08-02T01:52:24.971Z,13.45
2022-08-02T01:53:29.321Z,13.49
2022-08-02T01:54:33.728Z,13.51
2022-08-02T01:55:56.945Z,13.55
2022-08-02T01:56:42.484Z,13.57
2022-08-02T01:57:46.788Z,13.58
2022-08-02T01:58:51.121Z,13.59
2022-08-02T01:59:55.583Z,13.61
2022-08-02T02:01:00.066Z,13.59
2022-08-02T02:02:04.211Z,13.56
2022-08-02T02:03:08.584Z,13.55
2022-08-02T02:04:12.974Z,13.55
2022-08-02T02:05:17.283Z,13.53
2022-08-02T02:06:21.595Z,13.52
2022-08-02T02:07:25.939Z,13.52
2022-08-02T02:08:30.277Z,13.50
2022-08-02T02:09:34.613Z,13.46
2022-08-02T02:10:38.950Z,13.43
2022-08-02T02:12:06.157Z,13.41
2022-08-02T02:12:47.623Z,13.40
2022-08-02T02:13:52.023Z,13.38
2022-08-02T02:14:56.412Z,13.36
2022-08-02T02:16:00.687Z,13.37
2022-08-02T02:17:04.997Z,13.36
2022-08-02T02:18:12.512Z,13.36
2022-08-02T02:19:13.689Z,13.35
2022-08-02T02:20:18.040Z,13.34
2022-08-02T02:21:22.411Z,13.35
2022-08-02T02:22:26.737Z,13.34
2022-08-02T02:23:34.084Z,13.35
2022-08-02T02:24:35.402Z,13.35
2022-08-02T02:25:41.484Z,13.35
2022-08-02T02:26:49.299Z,13.38
2022-08-02T02:27:48.430Z,13.41
2022-08-02T02:28:52.823Z,13.34
2022-08-02T02:29:57.183Z,13.24
2022-08-02T02:31:01.468Z,13.17
2022-08-02T02:32:05.783Z,13.09
2022-08-02T02:33:10.121Z,13.04
2022-08-02T02:34:14.493Z,13.02
2022-08-02T02:35:18.797Z,13.03
2022-08-02T02:36:23.145Z,13.04
2022-08-02T02:37:27.462Z,13.06
2022-08-02T02:38:34.679Z,13.08
2022-08-02T02:39:38.116Z,13.16
2022-08-02T02:40:42.336Z,13.19
2022-08-02T02:41:46.738Z,13.21
2022-08-02T02:42:51.093Z,13.19
2022-08-02T02:43:55.441Z,13.14
2022-08-02T02:44:59.789Z,13.11
2022-08-02T02:46:04.112Z,13.08
2022-08-02T02:47:08.439Z,13.07
2022-08-02T02:48:12.762Z,13.10
2022-08-02T02:49:17.183Z,13.12
2022-08-02T02:50:21.439Z,13.13
2022-08-02T02:51:25.777Z,13.13
2022-08-02T02:52:30.135Z,13.14
2022-08-02T02:54:31.110Z,13.18
2022-08-02T02:54:38.769Z,13.16
2022-08-02T02:56:02.175Z,13.13
2022-08-02T02:56:47.440Z,13.09
2022-08-02T02:57:51.808Z,13.05
2022-08-02T02:58:56.147Z,13.00
2022-08-02T03:00:00.451Z,12.96
2022-08-02T03:01:04.891Z,12.94
2022-08-02T03:02:09.629Z,12.92
2022-08-02T03:03:13.474Z,12.94
2022-08-02T03:04:17.839Z,12.96
2022-08-02T03:05:22.110Z,12.96
2022-08-02T03:06:26.582Z,12.96
2022-08-02T03:07:30.866Z,12.99
2022-08-02T03:08:35.302Z,13.02
2022-08-02T03:09:39.558Z,13.05
2022-08-02T03:10:43.860Z,13.07
2022-08-02T03:11:48.158Z,13.03
2022-08-02T03:12:52.644Z,12.97
2022-08-02T03:13:57.055Z,12.89
2022-08-02T03:15:01.308Z,12.83
2022-08-02T03:16:05.675Z,12.79
2022-08-02T03:17:10.008Z,12.79
2022-08-02T03:18:14.332Z,12.81
2022-08-02T03:19:18.651Z,12.86
2022-08-02T03:20:23.002Z,12.89
2022-08-02T03:21:27.354Z,12.91
2022-08-02T03:22:31.669Z,12.93
2022-08-02T03:23:36.061Z,12.94
2022-08-02T03:24:40.341Z,12.94
2022-08-02T03:25:44.708Z,12.95
2022-08-02T03:26:49.086Z,12.95
2022-08-02T03:27:53.405Z,12.95
2022-08-02T03:28:57.700Z,12.96
2022-08-02T03:30:02.045Z,12.98
2022-08-02T03:31:06.349Z,13.00
2022-08-02T03:32:11.037Z,13.02
2022-08-02T03:33:14.946Z,13.04
2022-08-02T03:34:19.279Z,13.07
2022-08-02T03:35:24.474Z,13.10
2022-08-02T03:36:27.911Z,13.12
2022-08-02T03:37:32.235Z,13.12
2022-08-02T03:38:39.588Z,13.16
2022-08-02T03:39:52.814Z,13.20
2022-08-02T03:40:47.139Z,13.24
2022-08-02T03:41:51.475Z,13.26
2022-08-02T03:42:55.807Z,13.29
2022-08-02T03:44:00.122Z,13.31
2022-08-02T03:45:08.391Z,13.30
2022-08-02T03:46:08.752Z,13.25
2022-08-02T03:47:13.094Z,13.21
2022-08-02T03:48:33.669Z,13.19
2022-08-02T03:49:21.793Z,13.16
2022-08-02T03:50:26.014Z,13.12
2022-08-02T03:51:30.262Z,13.10
2022-08-02T03:52:34.682Z,13.06
2022-08-02T03:53:38.941Z,12.98
2022-08-02T03:54:45.677Z,12.89
2022-08-02T03:55:47.449Z,12.87
2022-08-02T03:56:51.753Z,12.87
2022-08-02T03:57:56.024Z,12.87
2022-08-02T03:59:00.396Z,12.87
2022-08-02T04:00:04.747Z,12.86
2022-08-02T04:01:09.160Z,12.88
2022-08-02T04:02:13.846Z,12.93
2022-08-02T04:03:19.623Z,12.91
2022-08-02T04:04:22.036Z,12.89
2022-08-02T04:05:26.298Z,12.86
2022-08-02T04:06:30.665Z,12.84
2022-08-02T04:08:33.158Z,12.82
2022-08-02T04:08:39.276Z,12.83
2022-08-02T04:09:43.589Z,12.85
2022-08-02T04:10:47.841Z,12.88
2022-08-02T04:11:52.101Z,12.93
2022-08-02T04:12:56.334Z,12.98
2022-08-02T04:14:00.614Z,13.01
2022-08-02T04:15:04.910Z,13.04
2022-08-02T04:16:09.270Z,13.06
2022-08-02T04:17:13.626Z,13.07
2022-08-02T04:18:17.935Z,13.07
2022-08-02T04:19:22.262Z,13.06
2022-08-02T04:20:26.494Z,13.06
2022-08-02T04:21:49.011Z,13.07
2022-08-02T04:22:35.201Z,13.10
2022-08-02T04:23:39.493Z,13.12
2022-08-02T04:24:43.764Z,13.16
2022-08-02T04:25:48.119Z,13.19
2022-08-02T04:26:52.508Z,13.22
2022-08-02T04:28:17.537Z,13.26
2022-08-02T04:29:01.244Z,13.29
2022-08-02T04:30:05.528Z,13.35
2022-08-02T04:31:09.775Z,13.41
2022-08-02T04:32:14.551Z,13.48
2022-08-02T04:33:18.410Z,13.54
2022-08-02T04:34:22.706Z,13.61
2022-08-02T04:35:27.005Z,13.64
2022-08-02T04:36:31.999Z,13.66
2022-08-02T04:37:35.616Z,13.69
2022-08-02T04:38:39.936Z,13.74
2022-08-02T04:39:44.348Z,13.80
2022-08-02T04:40:48.575Z,13.84
2022-08-02T04:41:57.415Z,13.89
2022-08-02T04:42:57.336Z,13.94
2022-08-02T04:44:01.674Z,13.99
2022-08-02T04:45:05.988Z,14.03
2022-08-02T04:46:10.319Z,14.06
2022-08-02T04:47:14.646Z,14.07
2022-08-02T04:48:18.963Z,14.09
2022-08-02T04:49:23.378Z,14.13
2022-08-02T04:50:27.630Z,14.17
2022-08-02T04:51:38.018Z,14.23
2022-08-02T04:52:36.310Z,14.28
2022-08-02T04:53:40.718Z,14.32
2022-08-02T04:54:45.033Z,14.38
2022-08-02T04:55:49.385Z,14.43
2022-08-02T04:56:53.626Z,14.46
2022-08-02T04:57:58.322Z,14.50
2022-08-02T04:59:02.333Z,14.54
2022-08-02T05:00:06.677Z,14.58
2022-08-02T05:01:11.094Z,14.62
2022-08-02T05:02:15.371Z,14.65
2022-08-02T05:03:19.756Z,14.68
2022-08-02T05:04:24.141Z,14.71
2022-08-02T05:05:28.487Z,14.74
2022-08-02T05:06:32.832Z,14.75
2022-08-02T05:07:37.152Z,14.77
2022-08-02T05:08:41.427Z,14.80
2022-08-02T05:09:45.883Z,14.85
2022-08-02T05:10:50.212Z,14.90
2022-08-02T05:11:54.997Z,14.94
2022-08-02T05:12:58.821Z,14.99
2022-08-02T05:14:03.171Z,15.03
2022-08-02T05:15:09.170Z,15.08
2022-08-02T05:16:11.865Z,15.12
2022-08-02T05:17:16.239Z,15.16
2022-08-02T05:18:20.587Z,15.20
2022-08-02T05:19:24.932Z,15.24
2022-08-02T05:20:29.283Z,15.28
2022-08-02T05:21:33.585Z,15.33
2022-08-02T05:22:38.024Z,15.37
2022-08-02T05:23:42.321Z,15.41
2022-08-02T05:24:46.698Z,15.43
2022-08-02T05:25:51.158Z,15.45
2022-08-02T05:26:55.458Z,15.47
2022-08-02T05:27:59.721Z,15.50
2022-08-02T05:29:04.006Z,15.53
2022-08-02T05:30:08.380Z,15.55
2022-08-02T05:31:13.504Z,15.57
2022-08-02T05:32:17.111Z,15.59
2022-08-02T05:33:21.446Z,15.62
2022-08-02T05:34:25.824Z,15.64
2022-08-02T05:35:30.192Z,15.67
2022-08-02T05:36:34.449Z,15.69
2022-08-02T05:37:38.855Z,15.72
2022-08-02T05:38:43.230Z,15.74
2022-08-02T05:39:55.728Z,15.76
2022-08-02T05:40:54.713Z,15.79
2022-08-02T05:41:56.186Z,15.82
2022-08-02T05:43:00.569Z,15.85
2022-08-02T05:44:04.861Z,15.89
2022-08-02T05:45:09.310Z,15.92
2022-08-02T05:46:13.678Z,15.96
2022-08-02T05:47:17.911Z,16.01
2022-08-02T05:48:23.734Z,16.05
2022-08-02T05:49:26.749Z,16.10
2022-08-02T05:50:31.078Z,16.14
2022-08-02T05:51:35.483Z,16.17
2022-08-02T05:52:39.872Z,16.20
2022-08-02T05:53:44.233Z,16.23
2022-08-02T05:54:48.638Z,16.27
2022-08-02T05:55:52.902Z,16.30
2022-08-02T05:56:57.369Z,16.35
2022-08-02T05:58:01.728Z,16.38
2022-08-02T05:59:06.142Z,16.41
2022-08-02T06:00:10.519Z,16.43
2022-08-02T06:01:14.925Z,16.45
2022-08-02T06:02:20.510Z,16.46
2022-08-02T06:03:23.692Z,16.48
2022-08-02T06:04:27.971Z,16.49
2022-08-02T06:05:32.396Z,16.49
2022-08-02T06:06:36.792Z,16.49
2022-08-02T06:07:41.049Z,16.49
2022-08-02T06:08:47.793Z,16.49
2022-08-02T06:09:49.712Z,16.50
2022-08-02T06:10:54.087Z,16.51
2022-08-02T06:12:02.638Z,16.53
2022-08-02T06:13:02.756Z,16.55
2022-08-02T06:14:07.137Z,16.56
2022-08-02T06:15:11.536Z,16.59
2022-08-02T06:16:15.929Z,16.62
2022-08-02T06:17:20.296Z,16.65
2022-08-02T06:18:28.226Z,16.67
2022-08-02T06:19:28.942Z,16.68
2022-08-02T06:20:33.270Z,16.70
2022-08-02T06:22:33.662Z,16.74
2022-08-02T06:22:42.609Z,16.79
2022-08-02T06:23:57.651Z,16.84
2022-08-02T06:24:50.763Z,16.91
2022-08-02T06:25:55.073Z,16.99
2022-08-02T06:26:59.509Z,17.05
2022-08-02T06:28:03.781Z,17.11
2022-08-02T06:29:08.197Z,17.17
2022-08-02T06:30:12.581Z,17.24
2022-08-02T06:31:16.819Z,17.31
2022-08-02T06:32:21.244Z,17.39
2022-08-02T06:33:25.608Z,17.48
2022-08-02T06:34:29.975Z,17.57
2022-08-02T06:35:34.275Z,17.66
2022-08-02T06:36:38.578Z,17.75
2022-08-02T06:37:42.993Z,17.84
2022-08-02T06:38:51.173Z,17.95
2022-08-02T06:39:51.623Z,18.04
2022-08-02T06:40:55.995Z,18.12
2022-08-02T06:42:00.413Z,18.18
2022-08-02T06:43:04.827Z,18.22
2022-08-02T06:44:45.074Z,18.25
2022-08-02T06:45:13.593Z,18.27
2022-08-02T06:46:57.031Z,18.30
2022-08-02T06:47:22.213Z,18.33
2022-08-02T06:48:26.690Z,18.37
2022-08-02T06:49:52.600Z,18.41
2022-08-02T06:50:35.442Z,18.46
2022-08-02T06:51:39.719Z,18.52
2022-08-02T06:52:44.067Z,18.57
2022-08-02T06:53:48.515Z,18.61
2022-08-02T06:54:52.915Z,18.63
2022-08-02T06:55:57.290Z,18.65
2022-08-02T06:57:01.672Z,18.60
2022-08-02T06:58:06.077Z,18.55
2022-08-02T06:59:10.366Z,18.54
2022-08-02T07:00:14.827Z,18.55
2022-08-02T07:01:19.314Z,18.60
2022-08-02T07:02:23.558Z,18.67
2022-08-02T07:03:27.973Z,18.74
2022-08-02T07:04:32.405Z,18.82
2022-08-02T07:05:36.825Z,18.92
2022-08-02T07:06:41.231Z,19.02
2022-08-02T07:07:45.558Z,19.09
2022-08-02T07:09:11.185Z,19.10
2022-08-02T07:09:56.540Z,19.14
2022-08-02T07:10:59.120Z,19.19
2022-08-02T07:12:03.415Z,19.07
2022-08-02T07:13:07.825Z,18.96
2022-08-02T07:14:12.236Z,19.00
2022-08-02T07:15:16.701Z,19.01
2022-08-02T07:16:21.134Z,19.08
2022-08-02T07:17:25.554Z,19.06
2022-08-02T07:18:29.870Z,19.05
2022-08-02T07:19:38.040Z,19.14
2022-08-02T07:20:38.732Z,19.18
2022-08-02T07:21:56.601Z,19.27
2022-08-02T07:22:47.475Z,19.27
2022-08-02T07:23:51.858Z,19.08
2022-08-02T07:24:56.232Z,18.45
2022-08-02T07:26:02.444Z,18.09
2022-08-02T07:27:12.966Z,17.87
2022-08-02T07:28:15.284Z,18.01
2022-08-02T07:29:13.735Z,18.15
2022-08-02T07:30:18.063Z,18.30
2022-08-02T07:31:22.479Z,18.46
2022-08-02T07:32:26.797Z,18.57
2022-08-02T07:33:37.868Z,18.61
2022-08-02T07:34:35.541Z,18.58
2022-08-02T07:35:42.977Z,18.54
2022-08-02T07:36:46.512Z,18.50
2022-08-02T07:37:54.765Z,18.53
2022-08-02T07:38:55.281Z,18.30
2022-08-02T07:39:59.671Z,18.46
2022-08-02T07:41:04.068Z,18.52
2022-08-02T07:42:08.793Z,18.55
2022-08-02T07:43:12.719Z,18.50
2022-08-02T07:44:17.186Z,18.41
2022-08-02T07:45:21.609Z,18.36
2022-08-02T07:46:25.912Z,18.29
2022-08-02T07:47:30.348Z,18.38
2022-08-02T07:48:34.642Z,18.47
2022-08-02T07:49:39.235Z,18.56
2022-08-02T07:50:43.492Z,18.58
2022-08-02T07:51:47.902Z,18.65
2022-08-02T07:52:57.503Z,18.72
2022-08-02T07:54:02.394Z,18.74
2022-08-02T07:55:01.082Z,18.77
2022-08-02T07:56:05.501Z,18.73
2022-08-02T07:57:09.893Z,18.50
2022-08-02T07:58:14.202Z,18.30
2022-08-02T07:59:18.616Z,18.44
2022-08-02T08:00:23.066Z,18.60
2022-08-02T08:01:27.557Z,18.70
2022-08-02T08:02:31.820Z,18.69
2022-08-02T08:03:36.141Z,18.76
2022-08-02T08:04:40.571Z,18.85
2022-08-02T08:05:45.014Z,18.74
2022-08-02T08:06:49.308Z,18.68
2022-08-02T08:07:53.754Z,18.72
2022-08-02T08:08:58.147Z,18.72
2022-08-02T08:10:02.617Z,18.63
2022-08-02T08:11:07.275Z,18.51
2022-08-02T08:12:11.615Z,18.39
2022-08-02T08:13:15.828Z,18.35
2022-08-02T08:14:20.127Z,18.28
2022-08-02T08:15:24.482Z,18.22
2022-08-02T08:16:28.801Z,18.22
2022-08-02T08:17:36.195Z,18.24
2022-08-02T08:18:39.586Z,18.22
2022-08-02T08:19:52.044Z,18.18
2022-08-02T08:20:48.447Z,18.10
2022-08-02T08:21:52.770Z,18.00
2022-08-02T08:22:57.133Z,17.96
2022-08-02T08:24:01.499Z,18.07
2022-08-02T08:25:05.829Z,18.21
2022-08-02T08:26:15.781Z,18.23
2022-08-02T08:27:16.718Z,18.33
2022-08-02T08:28:21.075Z,18.32
2022-08-02T08:29:25.431Z,18.44
2022-08-02T08:30:29.781Z,18.43
2022-08-02T08:31:34.266Z,18.24
2022-08-02T08:32:38.545Z,18.12
2022-08-02T08:33:42.936Z,18.28
2022-08-02T08:34:47.383Z,18.29
2022-08-02T08:35:51.771Z,18.24
2022-08-02T08:36:56.102Z,18.16
2022-08-02T08:38:05.465Z,18.11
2022-08-02T08:39:04.929Z,18.07
2022-08-02T08:40:09.260Z,18.08
2022-08-02T08:41:13.765Z,17.83
2022-08-02T08:42:18.751Z,17.86
2022-08-02T08:43:22.586Z,17.66
2022-08-02T08:44:26.950Z,17.72
2022-08-02T08:45:31.376Z,17.88
2022-08-02T08:46:35.674Z,18.01
2022-08-02T08:47:40.046Z,17.89
2022-08-02T08:48:44.547Z,17.79
2022-08-02T08:49:52.354Z,17.75
2022-08-02T08:50:53.268Z,17.93
2022-08-02T08:51:57.618Z,17.97
2022-08-02T08:53:01.961Z,18.05
2022-08-02T08:54:06.347Z,17.76
2022-08-02T08:55:10.785Z,17.83
2022-08-02T08:56:16.471Z,17.87
2022-08-02T08:57:19.540Z,17.78
2022-08-02T08:58:23.997Z,17.77
2022-08-02T08:59:28.334Z,17.92
2022-08-02T09:00:32.692Z,18.03
2022-08-02T09:01:50.357Z,18.00
2022-08-02T09:02:41.534Z,18.03
2022-08-02T09:03:45.898Z,18.10
2022-08-02T09:04:54.503Z,18.13
2022-08-02T09:05:54.592Z,17.60
2022-08-02T09:06:59.055Z,17.75
2022-08-02T09:08:03.495Z,17.92
2022-08-02T09:09:07.797Z,18.08
2022-08-02T09:10:12.292Z,18.19
2022-08-02T09:11:16.633Z,18.24
2022-08-02T09:12:21.078Z,18.17
2022-08-02T09:13:31.235Z,17.94
2022-08-02T09:14:29.934Z,18.08
2022-08-02T09:15:34.384Z,18.11
2022-08-02T09:16:41.751Z,18.20
2022-08-02T09:17:45.304Z,18.30
2022-08-02T09:18:49.613Z,18.33
2022-08-02T09:19:54.034Z,18.47
2022-08-02T09:20:58.440Z,18.51
2022-08-02T09:22:02.828Z,18.58
2022-08-02T09:23:07.312Z,18.61
2022-08-02T09:24:11.750Z,18.70
2022-08-02T09:25:16.175Z,18.66
2022-08-02T09:26:20.559Z,18.53
2022-08-02T09:27:24.917Z,18.63
2022-08-02T09:28:29.309Z,18.67
2022-08-02T09:29:34.554Z,18.60
2022-08-02T09:30:38.196Z,18.59
2022-08-02T09:31:49.914Z,18.51
2022-08-02T09:32:47.164Z,18.50
2022-08-02T09:33:51.595Z,18.41
2022-08-02T09:34:55.929Z,18.20
2022-08-02T09:36:06.717Z,18.20
2022-08-02T09:37:04.765Z,18.09
2022-08-02T09:38:09.262Z,18.26
2022-08-02T09:39:13.606Z,18.23
2022-08-02T09:40:18.002Z,18.39
2022-08-02T09:41:22.458Z,18.49
2022-08-02T09:42:30.750Z,18.40
2022-08-02T09:43:31.336Z,18.32
2022-08-02T09:44:35.802Z,18.33
2022-08-02T09:45:40.255Z,18.23
2022-08-02T09:46:44.609Z,17.73
2022-08-02T09:47:49.035Z,18.02
2022-08-02T09:48:53.502Z,18.22
2022-08-02T09:49:57.895Z,18.20
2022-08-02T09:51:02.341Z,18.09
2022-08-02T09:52:06.770Z,18.21
2022-08-02T09:53:11.202Z,18.18
2022-08-02T09:54:15.645Z,18.12
2022-08-02T09:55:20.047Z,18.20
2022-08-02T09:56:35.118Z,18.40
2022-08-02T09:57:28.857Z,18.37
2022-08-02T09:58:33.245Z,18.44
2022-08-02T09:59:37.728Z,18.50
2022-08-02T10:00:52.421Z,18.57
2022-08-02T10:01:50.486Z,18.57
2022-08-02T10:02:51.010Z,18.48
2022-08-02T10:03:55.452Z,18.46
2022-08-02T10:04:59.822Z,18.38
2022-08-02T10:06:04.210Z,18.36
2022-08-02T10:07:08.661Z,18.30
2022-08-02T10:08:12.980Z,18.34
2022-08-02T10:09:17.379Z,18.31
2022-08-02T10:10:21.880Z,18.31
2022-08-02T10:11:26.199Z,18.30
2022-08-02T10:12:30.588Z,18.30
2022-08-02T10:13:34.973Z,18.36
2022-08-02T10:14:39.434Z,18.37
2022-08-02T10:15:50.264Z,18.41
2022-08-02T10:16:48.220Z,18.21
2022-08-02T10:17:52.614Z,17.78
2022-08-02T10:18:57.094Z,17.87
2022-08-02T10:20:04.694Z,18.05
2022-08-02T10:21:05.972Z,18.28
2022-08-02T10:22:10.774Z,17.80
2022-08-02T10:23:14.882Z,17.65
2022-08-02T10:24:19.290Z,17.88
2022-08-02T10:25:23.766Z,17.54
2022-08-02T10:26:28.221Z,17.74
2022-08-02T10:27:55.160Z,17.88
2022-08-02T10:28:36.911Z,17.71
2022-08-02T10:29:53.337Z,17.94
2022-08-02T10:30:45.752Z,18.12
2022-08-02T10:31:50.258Z,18.23
2022-08-02T10:32:54.654Z,18.26
2022-08-02T10:33:59.076Z,18.36
2022-08-02T10:35:23.308Z,18.29
2022-08-02T10:36:08.047Z,18.15
2022-08-02T10:37:13.032Z,18.20
2022-08-02T10:38:16.951Z,18.04
2022-08-02T10:39:21.240Z,17.80
2022-08-02T10:40:25.715Z,18.11
2022-08-02T10:41:30.153Z,18.19
2022-08-02T10:42:34.603Z,18.26
2022-08-02T10:43:39.020Z,17.89
2022-08-02T10:44:43.443Z,17.43
2022-08-02T10:45:50.768Z,17.79
2022-08-02T10:46:52.322Z,17.89
2022-08-02T10:47:56.686Z,18.02
2022-08-02T10:49:01.438Z,17.93
2022-08-02T10:50:05.745Z,17.97
2022-08-02T10:51:10.015Z,18.01
2022-08-02T10:52:15.045Z,18.19
2022-08-02T10:53:18.847Z,18.29
2022-08-02T10:54:23.175Z,18.39
2022-08-02T10:55:27.569Z,18.57
2022-08-02T10:56:31.968Z,18.65
2022-08-02T10:57:36.350Z,18.33
2022-08-02T10:58:40.741Z,18.45
2022-08-02T10:59:45.276Z,18.26
2022-08-02T11:00:49.715Z,17.65
2022-08-02T11:01:54.141Z,18.04
2022-08-02T11:02:58.598Z,18.19
2022-08-02T11:04:07.044Z,18.33
2022-08-02T11:05:07.473Z,18.19
2022-08-02T11:06:25.479Z,18.28
2022-08-02T11:07:16.310Z,18.27
2022-08-02T11:08:20.780Z,17.91
2022-08-02T11:09:30.983Z,17.76
2022-08-02T11:10:29.724Z,18.09
2022-08-02T11:11:54.013Z,18.08
2022-08-02T11:12:38.648Z,17.99
2022-08-02T11:13:43.063Z,17.79
2022-08-02T11:14:47.492Z,17.90
2022-08-02T11:15:51.882Z,18.08
2022-08-02T11:16:56.375Z,17.78
2022-08-02T11:18:00.851Z,18.05
2022-08-02T11:19:06.734Z,18.14
2022-08-02T11:20:09.773Z,17.99
2022-08-02T11:21:14.327Z,18.29
2022-08-02T11:22:22.423Z,18.31
2022-08-02T11:23:23.142Z,16.86
2022-08-02T11:24:27.504Z,16.65
2022-08-02T11:25:54.393Z,17.49
2022-08-02T11:26:36.372Z,17.89
2022-08-02T11:27:40.766Z,17.98
2022-08-02T11:28:45.209Z,18.14
2022-08-02T11:29:49.744Z,17.83
2022-08-02T11:30:54.028Z,18.15
2022-08-02T11:31:58.465Z,17.81
2022-08-02T11:33:02.858Z,17.74
2022-08-02T11:34:09.770Z,17.92
2022-08-02T11:35:11.771Z,17.59
2022-08-02T11:36:16.188Z,16.98
2022-08-02T11:37:20.697Z,17.56
2022-08-02T11:38:25.012Z,18.08
2022-08-02T11:39:29.552Z,18.39
2022-08-02T11:40:35.589Z,17.99
2022-08-02T11:41:45.952Z,18.39
2022-08-02T11:42:42.962Z,18.69
2022-08-02T11:43:47.417Z,18.47
2022-08-02T11:44:51.978Z,18.39
2022-08-02T11:45:56.343Z,18.70
2022-08-02T11:47:00.730Z,18.97
2022-08-02T11:48:05.261Z,19.06
2022-08-02T11:49:09.695Z,19.03
2022-08-02T11:50:14.163Z,18.76
2022-08-02T11:51:18.560Z,18.76
2022-08-02T11:52:23.116Z,18.74
2022-08-02T11:53:27.524Z,18.67
2022-08-02T11:54:31.998Z,18.45
2022-08-02T11:55:36.464Z,18.86
2022-08-02T11:56:40.921Z,18.33
2022-08-02T11:58:04.267Z,18.66
2022-08-02T11:58:49.914Z,18.59
2022-08-02T11:59:54.357Z,18.53
2022-08-02T12:00:58.802Z,19.10
2022-08-02T12:02:09.875Z,18.20
2022-08-02T12:03:14.384Z,18.96
2022-08-02T12:04:17.048Z,18.83
2022-08-02T12:05:24.658Z,19.22
2022-08-02T12:06:25.888Z,18.44
2022-08-02T12:07:35.230Z,18.56
2022-08-02T12:08:34.809Z,18.23
2022-08-02T12:09:41.245Z,19.09
2022-08-02T12:10:43.653Z,18.99
2022-08-02T12:11:48.226Z,18.90
2022-08-02T12:12:53.669Z,18.64
2022-08-02T12:13:57.549Z,18.91
2022-08-02T12:15:01.572Z,19.47
2022-08-02T12:16:08.771Z,19.07
2022-08-02T12:17:10.496Z,19.04
2022-08-02T12:18:15.064Z,18.87
2022-08-02T12:19:19.580Z,19.03
2022-08-02T12:20:24.045Z,18.42
2022-08-02T12:21:28.554Z,18.86
2022-08-02T12:22:33.049Z,19.20
2022-08-02T12:23:37.554Z,18.79
2022-08-02T12:24:42.032Z,18.13
2022-08-02T12:25:46.474Z,18.41
2022-08-02T12:26:51.016Z,17.81
2022-08-02T12:27:55.493Z,18.84
2022-08-02T12:28:59.973Z,18.46
2022-08-02T12:30:04.349Z,17.47
2022-08-02T12:31:08.864Z,17.91
2022-08-02T12:32:13.833Z,17.90
2022-08-02T12:33:17.823Z,18.09
2022-08-02T12:34:22.322Z,17.74
2022-08-02T12:35:27.174Z,18.01
2022-08-02T12:36:31.285Z,17.75
2022-08-02T12:37:35.688Z,17.90
2022-08-02T12:38:40.274Z,18.39
2022-08-02T12:39:44.703Z,17.99
2022-08-02T12:40:49.185Z,18.51
2022-08-02T12:41:54.935Z,18.37
2022-08-02T12:42:58.230Z,18.54
2022-08-02T12:44:02.735Z,18.66
2022-08-02T12:45:07.217Z,18.78
2022-08-02T12:46:11.622Z,18.40
2022-08-02T12:47:16.131Z,18.01
2022-08-02T12:48:20.562Z,18.39
2022-08-02T12:49:25.194Z,17.73
2022-08-02T12:50:29.554Z,18.00
2022-08-02T12:51:55.806Z,18.03
2022-08-02T12:52:38.568Z,18.57
2022-08-02T12:53:43.105Z,18.87
2022-08-02T12:54:47.652Z,19.23
2022-08-02T12:56:01.874Z,18.98
2022-08-02T12:56:56.617Z,18.77
2022-08-02T12:58:01.181Z,18.73
2022-08-02T12:59:05.614Z,19.11
2022-08-02T13:00:10.161Z,19.04
2022-08-02T13:01:14.768Z,19.01
2022-08-02T13:02:19.994Z,18.52
2022-08-02T13:04:10.851Z,18.90
2022-08-02T13:04:28.216Z,18.98
2022-08-02T13:05:55.994Z,19.34
2022-08-02T13:06:44.017Z,19.00
2022-08-02T13:07:41.743Z,18.94
2022-08-02T13:08:46.148Z,19.19
2022-08-02T13:09:50.714Z,18.27
2022-08-02T13:10:55.225Z,18.60
2022-08-02T13:11:59.702Z,19.00
2022-08-02T13:13:04.224Z,18.06
2022-08-02T13:14:08.730Z,18.60
2022-08-02T13:15:48.767Z,18.51
2022-08-02T13:16:17.696Z,18.07
2022-08-02T13:17:22.220Z,17.94
2022-08-02T13:18:26.716Z,18.18
2022-08-02T13:19:31.327Z,18.06
2022-08-02T13:20:39.103Z,17.34
2022-08-02T13:22:02.034Z,17.86
2022-08-02T13:22:51.303Z,17.26
2022-08-02T13:23:55.316Z,17.59
2022-08-02T13:24:58.305Z,17.43
2022-08-02T13:26:02.813Z,17.06
2022-08-02T13:27:08.299Z,16.63
2022-08-02T13:28:11.676Z,16.96
2022-08-02T13:29:16.122Z,17.13
2022-08-02T13:30:20.682Z,16.77
2022-08-02T13:31:35.844Z,17.18
2022-08-02T13:32:29.666Z,16.68
2022-08-02T13:33:34.147Z,16.85
2022-08-02T13:34:38.538Z,16.51
2022-08-02T13:35:43.007Z,16.78
2022-08-02T13:36:47.468Z,16.81
2022-08-02T13:37:51.988Z,16.91
2022-08-02T13:38:56.375Z,16.83
2022-08-02T13:40:20.413Z,16.77
2022-08-02T13:41:05.454Z,16.46
2022-08-02T13:43:52.709Z,16.70
2022-08-02T13:44:41.574Z,16.63
2022-08-02T13:45:46.055Z,16.58
2022-08-02T13:46:50.464Z,16.22
2022-08-02T13:48:04.371Z,16.21
2022-08-02T13:48:59.621Z,16.35
2022-08-02T13:50:04.025Z,16.21
2022-08-02T13:51:08.425Z,16.55